Aeroporto :
LOGIN :

Iscrizione | Disclaimer

   EN    FR    IT 

 










Sommario :    VFR   VFR Marginale   IFR   IFR Intensivo   IFR Molto Intensivo
Visibilità : 
Base nubi : 
>= 8 km
>= 3000ft
5 / 8 km
1000 / 3000 ft
1500m / 5 km
500 / 1000 ft
800 / 1500m
200 / 500 ft
< 800m
< 200 ft
Simboli :   Temporali  Nebbia  Neve Forte  Precipitazioni Forti  Vento > 20 kt
SIGMETs :   Varie  Temporali  Ghiacco  Turbolenza  Onda orograficha  Ceneri Vulcaniche






- Altitudine del aeroporto : 682 ft
- Codice IATA : VTB


UMII - Vitebsk

ULTIMO METAR :
  • 210600Z 26009G12MPS 6000 -DZ OVC007 02/01 Q1017 R23/290068 TEMPO 2000 DZ BKN005

METARs OBSOLETI :
  • 210500Z 26009G12MPS 6000 -DZ OVC007 02/01 Q1018 TEMPO 1000 DZ BKN003

TAF TAF UMII
Valido dal 21 a 05 ore il 21 a 15 ore UTC


210433Z 2105/2115 25007G12MPS 4000 BR BKN006
TEMPO 2105/2106 1000 DZ BR BKN003
TEMPO 2106/2115 27009G15MPS 2000 SHRA BR BKN005 BKN010CB



MetMap, La meteo Aeronautica in un colpo d'occhio ! - Copyright ORBIFLY Dicembre 2007 - Disclaimer

ORBIFLY MET'MAP TEAM :

Programmazione e sviluppo : Alexandra Zaïnal
Concezione : Baudouin d'Aumeries
Aiuto per la programmazione : Marc-Olivier Méhu
Supporto tecnico e logistico : Manuel Goepfert
Aiuto per la traduzione : Arnaldo La Scala

Contatto : metmap@orbifly.com




FONTI E CREDITI :

   NOAA